sensor_id;sensor_type;location;lat;lon;timestamp;temperature;humidity
54168;DHT22;68429;50.958;3.592;2023-07-08T00:00:53;20.40;98.80
54168;DHT22;68429;50.958;3.592;2023-07-08T00:03:19;20.20;98.80
54168;DHT22;68429;50.958;3.592;2023-07-08T00:05:46;20.10;98.90
54168;DHT22;68429;50.958;3.592;2023-07-08T00:08:14;20.00;99.30
54168;DHT22;68429;50.958;3.592;2023-07-08T00:10:40;19.90;99.80
54168;DHT22;68429;50.958;3.592;2023-07-08T00:13:07;19.80;99.90
54168;DHT22;68429;50.958;3.592;2023-07-08T00:15:33;19.90;99.90
54168;DHT22;68429;50.958;3.592;2023-07-08T00:18:00;19.70;99.90
54168;DHT22;68429;50.958;3.592;2023-07-08T00:23:05;19.70;99.90
54168;DHT22;68429;50.958;3.592;2023-07-08T00:25:31;19.70;99.90
54168;DHT22;68429;50.958;3.592;2023-07-08T00:27:58;19.60;99.90
54168;DHT22;68429;50.958;3.592;2023-07-08T00:30:31;19.50;99.90
54168;DHT22;68429;50.958;3.592;2023-07-08T00:32:58;19.50;99.90
54168;DHT22;68429;50.958;3.592;2023-07-08T00:35:34;19.20;99.90
54168;DHT22;68429;50.958;3.592;2023-07-08T00:38:01;19.30;99.90
54168;DHT22;68429;50.958;3.592;2023-07-08T00:40:30;19.10;99.90
54168;DHT22;68429;50.958;3.592;2023-07-08T00:42:59;19.20;99.90
54168;DHT22;68429;50.958;3.592;2023-07-08T00:45:37;18.80;99.90
54168;DHT22;68429;50.958;3.592;2023-07-08T00:48:31;18.70;99.90
54168;DHT22;68429;50.958;3.592;2023-07-08T00:50:59;18.80;99.90
54168;DHT22;68429;50.958;3.592;2023-07-08T00:53:31;18.80;99.90
54168;DHT22;68429;50.958;3.592;2023-07-08T00:56:17;18.80;99.90
54168;DHT22;68429;50.958;3.592;2023-07-08T00:58:57;18.80;99.90
54168;DHT22;68429;50.958;3.592;2023-07-08T01:01:25;18.70;99.90
54168;DHT22;68429;50.958;3.592;2023-07-08T01:04:06;18.60;99.90
54168;DHT22;68429;50.958;3.592;2023-07-08T01:06:35;18.50;99.90
54168;DHT22;68429;50.958;3.592;2023-07-08T01:09:06;18.60;99.90
54168;DHT22;68429;50.958;3.592;2023-07-08T01:11:33;18.80;99.90
54168;DHT22;68429;50.958;3.592;2023-07-08T01:14:01;18.60;99.90
54168;DHT22;68429;50.958;3.592;2023-07-08T01:16:29;18.60;99.90
54168;DHT22;68429;50.958;3.592;2023-07-08T01:19:00;18.40;99.90
54168;DHT22;68429;50.958;3.592;2023-07-08T01:21:37;18.40;99.90
54168;DHT22;68429;50.958;3.592;2023-07-08T01:24:06;18.40;99.90
54168;DHT22;68429;50.958;3.592;2023-07-08T01:26:35;18.70;99.90
54168;DHT22;68429;50.958;3.592;2023-07-08T01:29:03;18.70;99.90
54168;DHT22;68429;50.958;3.592;2023-07-08T01:31:29;18.90;99.90
54168;DHT22;68429;50.958;3.592;2023-07-08T01:33:55;19.20;99.90
54168;DHT22;68429;50.958;3.592;2023-07-08T01:36:21;19.20;99.90
54168;DHT22;68429;50.958;3.592;2023-07-08T01:38:47;19.00;99.90
54168;DHT22;68429;50.958;3.592;2023-07-08T01:41:15;18.90;99.90
54168;DHT22;68429;50.958;3.592;2023-07-08T01:43:40;18.80;99.90
54168;DHT22;68429;50.958;3.592;2023-07-08T01:46:26;18.70;99.90
54168;DHT22;68429;50.958;3.592;2023-07-08T01:48:56;18.80;99.90
54168;DHT22;68429;50.958;3.592;2023-07-08T01:51:23;18.80;99.90
54168;DHT22;68429;50.958;3.592;2023-07-08T01:53:49;18.70;99.90
54168;DHT22;68429;50.958;3.592;2023-07-08T01:56:15;18.60;99.90
54168;DHT22;68429;50.958;3.592;2023-07-08T01:58:41;18.50;99.90
54168;DHT22;68429;50.958;3.592;2023-07-08T02:01:07;18.60;99.90
54168;DHT22;68429;50.958;3.592;2023-07-08T02:03:33;18.70;99.90
54168;DHT22;68429;50.958;3.592;2023-07-08T02:05:59;18.80;99.90
54168;DHT22;68429;50.958;3.592;2023-07-08T02:08:25;18.60;99.90
54168;DHT22;68429;50.958;3.592;2023-07-08T02:10:55;18.60;99.90
54168;DHT22;68429;50.958;3.592;2023-07-08T02:13:23;18.50;99.90
54168;DHT22;68429;50.958;3.592;2023-07-08T02:15:49;18.40;99.90
54168;DHT22;68429;50.958;3.592;2023-07-08T02:18:15;18.50;99.90
54168;DHT22;68429;50.958;3.592;2023-07-08T02:20:42;18.70;99.90
54168;DHT22;68429;50.958;3.592;2023-07-08T02:23:08;18.70;99.90
54168;DHT22;68429;50.958;3.592;2023-07-08T02:25:34;18.50;99.90
54168;DHT22;68429;50.958;3.592;2023-07-08T02:28:00;18.30;99.90
54168;DHT22;68429;50.958;3.592;2023-07-08T02:30:26;18.20;99.90
54168;DHT22;68429;50.958;3.592;2023-07-08T02:32:52;18.10;99.90
54168;DHT22;68429;50.958;3.592;2023-07-08T02:35:30;18.20;99.90
54168;DHT22;68429;50.958;3.592;2023-07-08T02:37:56;18.20;99.90
54168;DHT22;68429;50.958;3.592;2023-07-08T02:40:23;18.20;99.90
54168;DHT22;68429;50.958;3.592;2023-07-08T02:42:49;18.00;99.90
54168;DHT22;68429;50.958;3.592;2023-07-08T02:45:17;18.10;99.90
54168;DHT22;68429;50.958;3.592;2023-07-08T02:47:42;18.00;99.90
54168;DHT22;68429;50.958;3.592;2023-07-08T02:50:09;18.00;99.90
54168;DHT22;68429;50.958;3.592;2023-07-08T02:52:35;17.90;99.90
54168;DHT22;68429;50.958;3.592;2023-07-08T02:55:02;17.80;99.90
54168;DHT22;68429;50.958;3.592;2023-07-08T02:57:27;17.70;99.90
54168;DHT22;68429;50.958;3.592;2023-07-08T02:59:53;17.80;99.90
54168;DHT22;68429;50.958;3.592;2023-07-08T03:02:19;17.90;99.90
54168;DHT22;68429;50.958;3.592;2023-07-08T03:04:44;17.90;99.90
54168;DHT22;68429;50.958;3.592;2023-07-08T03:07:11;18.10;99.90
54168;DHT22;68429;50.958;3.592;2023-07-08T03:09:40;18.10;99.90
54168;DHT22;68429;50.958;3.592;2023-07-08T03:12:08;18.00;99.90
54168;DHT22;68429;50.958;3.592;2023-07-08T03:14:34;17.90;99.90
54168;DHT22;68429;50.958;3.592;2023-07-08T03:17:00;18.10;99.90
54168;DHT22;68429;50.958;3.592;2023-07-08T03:19:25;18.30;99.90
54168;DHT22;68429;50.958;3.592;2023-07-08T03:21:51;18.40;99.90
54168;DHT22;68429;50.958;3.592;2023-07-08T03:24:17;18.50;99.90
54168;DHT22;68429;50.958;3.592;2023-07-08T03:26:44;18.50;99.90
54168;DHT22;68429;50.958;3.592;2023-07-08T03:29:18;18.40;99.90
54168;DHT22;68429;50.958;3.592;2023-07-08T03:31:44;18.10;99.90
54168;DHT22;68429;50.958;3.592;2023-07-08T03:34:13;18.00;99.90
54168;DHT22;68429;50.958;3.592;2023-07-08T03:36:46;18.00;99.90
54168;DHT22;68429;50.958;3.592;2023-07-08T03:39:18;18.00;99.90
54168;DHT22;68429;50.958;3.592;2023-07-08T03:41:45;18.30;99.90
54168;DHT22;68429;50.958;3.592;2023-07-08T03:44:11;18.40;99.90
54168;DHT22;68429;50.958;3.592;2023-07-08T03:46:38;18.10;99.90
54168;DHT22;68429;50.958;3.592;2023-07-08T03:49:05;18.00;99.90
54168;DHT22;68429;50.958;3.592;2023-07-08T03:51:34;17.80;99.90
54168;DHT22;68429;50.958;3.592;2023-07-08T03:54:00;18.00;99.90
54168;DHT22;68429;50.958;3.592;2023-07-08T03:56:26;18.10;99.90
54168;DHT22;68429;50.958;3.592;2023-07-08T03:58:52;18.00;99.90
54168;DHT22;68429;50.958;3.592;2023-07-08T04:01:19;17.70;99.90
54168;DHT22;68429;50.958;3.592;2023-07-08T04:03:47;17.80;99.90
54168;DHT22;68429;50.958;3.592;2023-07-08T04:06:14;17.80;99.90
54168;DHT22;68429;50.958;3.592;2023-07-08T04:08:40;17.90;99.90
54168;DHT22;68429;50.958;3.592;2023-07-08T04:11:06;17.80;99.90
54168;DHT22;68429;50.958;3.592;2023-07-08T04:13:32;18.00;99.90
54168;DHT22;68429;50.958;3.592;2023-07-08T04:16:03;18.20;99.90
54168;DHT22;68429;50.958;3.592;2023-07-08T04:18:29;18.30;99.90
54168;DHT22;68429;50.958;3.592;2023-07-08T04:20:55;18.20;99.90
54168;DHT22;68429;50.958;3.592;2023-07-08T04:23:22;18.10;99.90
54168;DHT22;68429;50.958;3.592;2023-07-08T04:25:49;18.10;99.90
54168;DHT22;68429;50.958;3.592;2023-07-08T04:28:16;18.10;99.90
54168;DHT22;68429;50.958;3.592;2023-07-08T04:30:43;18.10;99.90
54168;DHT22;68429;50.958;3.592;2023-07-08T04:33:09;18.10;99.90
54168;DHT22;68429;50.958;3.592;2023-07-08T04:35:36;18.10;99.90
54168;DHT22;68429;50.958;3.592;2023-07-08T04:38:04;18.30;99.90
54168;DHT22;68429;50.958;3.592;2023-07-08T04:40:36;18.40;99.90
54168;DHT22;68429;50.958;3.592;2023-07-08T04:43:06;18.60;99.90
54168;DHT22;68429;50.958;3.592;2023-07-08T04:45:32;18.70;99.90
54168;DHT22;68429;50.958;3.592;2023-07-08T04:47:58;18.80;99.90
54168;DHT22;68429;50.958;3.592;2023-07-08T04:50:24;18.90;99.90
54168;DHT22;68429;50.958;3.592;2023-07-08T04:52:50;19.00;99.90
54168;DHT22;68429;50.958;3.592;2023-07-08T04:55:16;18.90;99.90
54168;DHT22;68429;50.958;3.592;2023-07-08T04:57:42;18.90;99.90
54168;DHT22;68429;50.958;3.592;2023-07-08T05:00:14;18.90;99.90
54168;DHT22;68429;50.958;3.592;2023-07-08T05:02:41;19.10;99.90
54168;DHT22;68429;50.958;3.592;2023-07-08T05:05:07;19.20;99.90
54168;DHT22;68429;50.958;3.592;2023-07-08T05:07:32;19.10;99.90
54168;DHT22;68429;50.958;3.592;2023-07-08T05:09:58;19.30;99.90
54168;DHT22;68429;50.958;3.592;2023-07-08T05:12:25;19.20;99.90
54168;DHT22;68429;50.958;3.592;2023-07-08T05:14:51;19.50;99.90
54168;DHT22;68429;50.958;3.592;2023-07-08T05:17:17;19.50;99.90
54168;DHT22;68429;50.958;3.592;2023-07-08T05:19:43;19.50;99.90
54168;DHT22;68429;50.958;3.592;2023-07-08T05:22:11;19.40;99.90
54168;DHT22;68429;50.958;3.592;2023-07-08T05:24:37;19.60;99.90
54168;DHT22;68429;50.958;3.592;2023-07-08T05:27:03;19.60;99.90
54168;DHT22;68429;50.958;3.592;2023-07-08T05:29:29;19.90;99.90
54168;DHT22;68429;50.958;3.592;2023-07-08T05:31:55;20.20;99.90
54168;DHT22;68429;50.958;3.592;2023-07-08T05:34:21;20.30;99.90
54168;DHT22;68429;50.958;3.592;2023-07-08T05:36:46;20.10;99.90
54168;DHT22;68429;50.958;3.592;2023-07-08T05:39:13;20.20;99.90
54168;DHT22;68429;50.958;3.592;2023-07-08T05:41:38;20.20;99.90
54168;DHT22;68429;50.958;3.592;2023-07-08T05:44:04;20.40;99.90
54168;DHT22;68429;50.958;3.592;2023-07-08T05:46:30;20.40;99.90
54168;DHT22;68429;50.958;3.592;2023-07-08T05:48:55;20.80;99.90
54168;DHT22;68429;50.958;3.592;2023-07-08T05:51:21;21.10;99.90
54168;DHT22;68429;50.958;3.592;2023-07-08T05:53:47;21.20;99.90
54168;DHT22;68429;50.958;3.592;2023-07-08T05:56:13;21.30;99.90
54168;DHT22;68429;50.958;3.592;2023-07-08T05:58:38;21.10;99.90
54168;DHT22;68429;50.958;3.592;2023-07-08T06:01:04;21.10;99.90
54168;DHT22;68429;50.958;3.592;2023-07-08T06:03:30;21.30;99.90
54168;DHT22;68429;50.958;3.592;2023-07-08T06:05:56;21.40;99.90
54168;DHT22;68429;50.958;3.592;2023-07-08T06:08:22;21.70;99.90
54168;DHT22;68429;50.958;3.592;2023-07-08T06:10:49;22.00;99.90
54168;DHT22;68429;50.958;3.592;2023-07-08T06:13:14;22.00;99.90
54168;DHT22;68429;50.958;3.592;2023-07-08T06:15:41;22.10;99.90
54168;DHT22;68429;50.958;3.592;2023-07-08T06:18:07;22.30;99.90
54168;DHT22;68429;50.958;3.592;2023-07-08T06:20:33;22.00;99.90
54168;DHT22;68429;50.958;3.592;2023-07-08T06:22:58;22.40;99.90
54168;DHT22;68429;50.958;3.592;2023-07-08T06:25:24;23.40;99.90
54168;DHT22;68429;50.958;3.592;2023-07-08T06:27:50;24.00;99.30
54168;DHT22;68429;50.958;3.592;2023-07-08T06:30:15;24.40;98.30
54168;DHT22;68429;50.958;3.592;2023-07-08T06:32:41;24.40;97.90
54168;DHT22;68429;50.958;3.592;2023-07-08T06:35:07;24.30;98.30
54168;DHT22;68429;50.958;3.592;2023-07-08T06:37:33;23.80;98.60
54168;DHT22;68429;50.958;3.592;2023-07-08T06:39:58;23.70;99.00
54168;DHT22;68429;50.958;3.592;2023-07-08T06:42:25;23.60;99.10
54168;DHT22;68429;50.958;3.592;2023-07-08T06:44:51;23.40;98.90
54168;DHT22;68429;50.958;3.592;2023-07-08T06:47:20;23.10;99.70
54168;DHT22;68429;50.958;3.592;2023-07-08T06:49:47;22.60;99.90
54168;DHT22;68429;50.958;3.592;2023-07-08T06:52:14;22.50;99.90
54168;DHT22;68429;50.958;3.592;2023-07-08T06:54:40;23.00;99.90
54168;DHT22;68429;50.958;3.592;2023-07-08T06:57:06;23.00;99.90
54168;DHT22;68429;50.958;3.592;2023-07-08T06:59:32;23.10;99.90
54168;DHT22;68429;50.958;3.592;2023-07-08T07:01:58;23.20;99.90
54168;DHT22;68429;50.958;3.592;2023-07-08T07:04:24;23.50;99.90
54168;DHT22;68429;50.958;3.592;2023-07-08T07:06:49;23.60;99.90
54168;DHT22;68429;50.958;3.592;2023-07-08T07:09:15;24.00;99.70
54168;DHT22;68429;50.958;3.592;2023-07-08T07:11:41;24.00;99.90
54168;DHT22;68429;50.958;3.592;2023-07-08T07:14:06;24.20;99.60
54168;DHT22;68429;50.958;3.592;2023-07-08T07:16:32;24.50;99.20
54168;DHT22;68429;50.958;3.592;2023-07-08T07:18:58;24.40;99.50
54168;DHT22;68429;50.958;3.592;2023-07-08T07:21:23;24.40;99.60
54168;DHT22;68429;50.958;3.592;2023-07-08T07:23:49;24.40;98.80
54168;DHT22;68429;50.958;3.592;2023-07-08T07:26:15;24.00;99.20
54168;DHT22;68429;50.958;3.592;2023-07-08T07:28:41;24.30;99.50
54168;DHT22;68429;50.958;3.592;2023-07-08T07:31:06;24.30;99.90
54168;DHT22;68429;50.958;3.592;2023-07-08T07:33:33;24.30;99.30
54168;DHT22;68429;50.958;3.592;2023-07-08T07:35:59;24.40;99.60
54168;DHT22;68429;50.958;3.592;2023-07-08T07:38:25;24.60;99.20
54168;DHT22;68429;50.958;3.592;2023-07-08T07:40:54;24.90;98.60
54168;DHT22;68429;50.958;3.592;2023-07-08T07:43:20;25.30;98.60
54168;DHT22;68429;50.958;3.592;2023-07-08T07:45:50;25.60;98.40
54168;DHT22;68429;50.958;3.592;2023-07-08T07:48:16;25.60;98.00
54168;DHT22;68429;50.958;3.592;2023-07-08T07:50:48;25.70;98.00
54168;DHT22;68429;50.958;3.592;2023-07-08T07:53:14;25.50;97.80
54168;DHT22;68429;50.958;3.592;2023-07-08T07:55:40;25.50;98.10
54168;DHT22;68429;50.958;3.592;2023-07-08T07:58:05;25.60;97.20
54168;DHT22;68429;50.958;3.592;2023-07-08T08:00:31;25.90;97.70
54168;DHT22;68429;50.958;3.592;2023-07-08T08:02:57;26.20;96.90
54168;DHT22;68429;50.958;3.592;2023-07-08T08:05:23;26.00;97.20
54168;DHT22;68429;50.958;3.592;2023-07-08T08:07:49;26.00;97.40
54168;DHT22;68429;50.958;3.592;2023-07-08T08:10:15;26.10;97.40
54168;DHT22;68429;50.958;3.592;2023-07-08T08:12:41;26.30;96.60
54168;DHT22;68429;50.958;3.592;2023-07-08T08:15:07;26.40;96.00
54168;DHT22;68429;50.958;3.592;2023-07-08T08:17:33;26.40;96.00
54168;DHT22;68429;50.958;3.592;2023-07-08T08:19:59;26.40;96.50
54168;DHT22;68429;50.958;3.592;2023-07-08T08:22:25;26.50;96.10
54168;DHT22;68429;50.958;3.592;2023-07-08T08:24:50;26.60;95.70
54168;DHT22;68429;50.958;3.592;2023-07-08T08:27:16;26.70;95.90
54168;DHT22;68429;50.958;3.592;2023-07-08T08:29:42;26.70;95.30
54168;DHT22;68429;50.958;3.592;2023-07-08T08:32:07;26.60;96.20
54168;DHT22;68429;50.958;3.592;2023-07-08T08:34:33;26.90;95.70
54168;DHT22;68429;50.958;3.592;2023-07-08T08:36:59;27.10;95.10
54168;DHT22;68429;50.958;3.592;2023-07-08T08:39:25;27.30;95.80
54168;DHT22;68429;50.958;3.592;2023-07-08T08:41:55;27.40;95.60
54168;DHT22;68429;50.958;3.592;2023-07-08T08:44:31;27.60;95.70
54168;DHT22;68429;50.958;3.592;2023-07-08T08:47:23;28.10;95.00
54168;DHT22;68429;50.958;3.592;2023-07-08T08:49:56;28.30;94.40
54168;DHT22;68429;50.958;3.592;2023-07-08T08:52:22;28.60;93.80
54168;DHT22;68429;50.958;3.592;2023-07-08T08:54:48;28.80;94.20
54168;DHT22;68429;50.958;3.592;2023-07-08T08:57:20;28.80;93.20
54168;DHT22;68429;50.958;3.592;2023-07-08T08:59:56;28.80;93.30
54168;DHT22;68429;50.958;3.592;2023-07-08T09:02:36;28.60;93.40
54168;DHT22;68429;50.958;3.592;2023-07-08T09:05:08;28.80;92.70
54168;DHT22;68429;50.958;3.592;2023-07-08T09:07:46;29.00;92.90
54168;DHT22;68429;50.958;3.592;2023-07-08T09:10:39;29.30;92.50
54168;DHT22;68429;50.958;3.592;2023-07-08T09:13:08;29.80;92.10
54168;DHT22;68429;50.958;3.592;2023-07-08T09:15:37;29.90;91.60
54168;DHT22;68429;50.958;3.592;2023-07-08T09:18:20;29.80;91.20
54168;DHT22;68429;50.958;3.592;2023-07-08T09:20:52;29.90;91.90
54168;DHT22;68429;50.958;3.592;2023-07-08T09:23:20;30.30;90.90
54168;DHT22;68429;50.958;3.592;2023-07-08T09:26:05;30.40;90.50
54168;DHT22;68429;50.958;3.592;2023-07-08T09:28:44;30.50;90.60
54168;DHT22;68429;50.958;3.592;2023-07-08T09:31:24;31.00;90.60
54168;DHT22;68429;50.958;3.592;2023-07-08T09:34:12;30.90;90.50
54168;DHT22;68429;50.958;3.592;2023-07-08T09:36:41;31.10;90.10
54168;DHT22;68429;50.958;3.592;2023-07-08T09:39:15;31.00;90.50
54168;DHT22;68429;50.958;3.592;2023-07-08T09:41:43;31.20;90.30
54168;DHT22;68429;50.958;3.592;2023-07-08T09:44:22;31.50;90.00
54168;DHT22;68429;50.958;3.592;2023-07-08T09:46:59;31.90;88.80
54168;DHT22;68429;50.958;3.592;2023-07-08T09:49:32;32.20;89.00
54168;DHT22;68429;50.958;3.592;2023-07-08T09:51:58;32.00;88.30
54168;DHT22;68429;50.958;3.592;2023-07-08T09:54:25;32.10;88.90
54168;DHT22;68429;50.958;3.592;2023-07-08T09:57:17;31.90;89.00
54168;DHT22;68429;50.958;3.592;2023-07-08T09:59:49;32.00;88.60
54168;DHT22;68429;50.958;3.592;2023-07-08T10:02:38;32.30;88.10
54168;DHT22;68429;50.958;3.592;2023-07-08T10:05:19;32.30;86.40
54168;DHT22;68429;50.958;3.592;2023-07-08T10:07:48;32.50;86.70
54168;DHT22;68429;50.958;3.592;2023-07-08T10:10:17;32.30;86.00
54168;DHT22;68429;50.958;3.592;2023-07-08T10:12:55;32.10;86.50
54168;DHT22;68429;50.958;3.592;2023-07-08T10:15:39;32.30;86.40
54168;DHT22;68429;50.958;3.592;2023-07-08T10:18:19;32.80;85.50
54168;DHT22;68429;50.958;3.592;2023-07-08T10:26:30;33.50;82.70
54168;DHT22;68429;50.958;3.592;2023-07-08T10:29:18;34.60;82.00
54168;DHT22;68429;50.958;3.592;2023-07-08T10:35:13;34.50;80.10
54168;DHT22;68429;50.958;3.592;2023-07-08T10:38:07;34.30;81.30
54168;DHT22;68429;50.958;3.592;2023-07-08T10:40:48;34.10;82.10
54168;DHT22;68429;50.958;3.592;2023-07-08T10:43:59;35.20;79.50
54168;DHT22;68429;50.958;3.592;2023-07-08T10:46:13;35.10;79.90
54168;DHT22;68429;50.958;3.592;2023-07-08T10:54:48;35.10;76.10
54168;DHT22;68429;50.958;3.592;2023-07-08T10:57:44;35.80;76.10
54168;DHT22;68429;50.958;3.592;2023-07-08T11:05:47;34.40;75.40
54168;DHT22;68429;50.958;3.592;2023-07-08T11:11:40;36.50;74.20
54168;DHT22;68429;50.958;3.592;2023-07-08T11:14:21;36.50;74.80
54168;DHT22;68429;50.958;3.592;2023-07-08T11:16:57;36.60;75.30
54168;DHT22;68429;50.958;3.592;2023-07-08T11:19:51;37.10;74.00
54168;DHT22;68429;50.958;3.592;2023-07-08T11:22:19;35.50;73.70
54168;DHT22;68429;50.958;3.592;2023-07-08T11:24:48;34.30;75.60
54168;DHT22;68429;50.958;3.592;2023-07-08T11:27:27;34.80;74.30
54168;DHT22;68429;50.958;3.592;2023-07-08T11:30:08;35.00;73.80
54168;DHT22;68429;50.958;3.592;2023-07-08T11:32:38;35.60;72.90
54168;DHT22;68429;50.958;3.592;2023-07-08T11:35:06;35.90;71.20
54168;DHT22;68429;50.958;3.592;2023-07-08T11:37:37;35.70;72.10
54168;DHT22;68429;50.958;3.592;2023-07-08T11:40:23;35.50;71.50
54168;DHT22;68429;50.958;3.592;2023-07-08T11:42:51;35.80;71.70
54168;DHT22;68429;50.958;3.592;2023-07-08T11:47:45;34.20;73.30
54168;DHT22;68429;50.958;3.592;2023-07-08T11:50:36;34.60;73.80
54168;DHT22;68429;50.958;3.592;2023-07-08T11:56:03;33.30;74.50
54168;DHT22;68429;50.958;3.592;2023-07-08T11:58:59;33.40;75.30
54168;DHT22;68429;50.958;3.592;2023-07-08T12:01:40;33.30;75.80
54168;DHT22;68429;50.958;3.592;2023-07-08T12:09:15;32.80;75.60
54168;DHT22;68429;50.958;3.592;2023-07-08T12:11:47;33.00;75.50
54168;DHT22;68429;50.958;3.592;2023-07-08T12:14:13;32.90;76.60
54168;DHT22;68429;50.958;3.592;2023-07-08T12:16:40;33.00;76.10
54168;DHT22;68429;50.958;3.592;2023-07-08T12:19:13;32.60;77.00
54168;DHT22;68429;50.958;3.592;2023-07-08T12:21:41;32.00;78.60
54168;DHT22;68429;50.958;3.592;2023-07-08T12:24:09;32.00;78.90
54168;DHT22;68429;50.958;3.592;2023-07-08T12:26:36;32.00;79.50
54168;DHT22;68429;50.958;3.592;2023-07-08T12:29:02;32.00;79.80
54168;DHT22;68429;50.958;3.592;2023-07-08T12:31:28;32.00;79.50
54168;DHT22;68429;50.958;3.592;2023-07-08T12:33:57;32.00;79.50
54168;DHT22;68429;50.958;3.592;2023-07-08T12:36:26;31.80;79.40
54168;DHT22;68429;50.958;3.592;2023-07-08T12:38:55;32.10;81.10
54168;DHT22;68429;50.958;3.592;2023-07-08T12:41:32;32.50;79.80
54168;DHT22;68429;50.958;3.592;2023-07-08T12:43:59;33.00;78.10
54168;DHT22;68429;50.958;3.592;2023-07-08T12:46:26;33.30;78.70
54168;DHT22;68429;50.958;3.592;2023-07-08T12:48:52;33.50;78.70
54168;DHT22;68429;50.958;3.592;2023-07-08T12:51:25;33.40;78.50
54168;DHT22;68429;50.958;3.592;2023-07-08T12:53:52;33.90;78.40
54168;DHT22;68429;50.958;3.592;2023-07-08T12:56:20;33.70;79.50
54168;DHT22;68429;50.958;3.592;2023-07-08T12:58:52;33.60;78.60
54168;DHT22;68429;50.958;3.592;2023-07-08T13:01:24;33.80;79.00
54168;DHT22;68429;50.958;3.592;2023-07-08T13:03:52;34.00;79.10
54168;DHT22;68429;50.958;3.592;2023-07-08T13:06:21;33.60;78.30
54168;DHT22;68429;50.958;3.592;2023-07-08T13:08:49;34.10;80.30
54168;DHT22;68429;50.958;3.592;2023-07-08T13:11:18;34.80;79.20
54168;DHT22;68429;50.958;3.592;2023-07-08T13:14:06;35.50;78.30
54168;DHT22;68429;50.958;3.592;2023-07-08T13:16:34;36.40;75.90
54168;DHT22;68429;50.958;3.592;2023-07-08T13:19:00;36.00;75.60
54168;DHT22;68429;50.958;3.592;2023-07-08T13:21:26;35.50;77.70
54168;DHT22;68429;50.958;3.592;2023-07-08T13:23:54;34.80;78.50
54168;DHT22;68429;50.958;3.592;2023-07-08T13:26:22;34.90;79.40
54168;DHT22;68429;50.958;3.592;2023-07-08T13:28:48;35.00;79.60
54168;DHT22;68429;50.958;3.592;2023-07-08T13:31:23;34.90;80.10
54168;DHT22;68429;50.958;3.592;2023-07-08T13:33:53;35.70;81.70
54168;DHT22;68429;50.958;3.592;2023-07-08T13:36:25;34.60;79.90
54168;DHT22;68429;50.958;3.592;2023-07-08T13:38:53;34.10;80.30
54168;DHT22;68429;50.958;3.592;2023-07-08T13:41:23;33.90;81.30
54168;DHT22;68429;50.958;3.592;2023-07-08T13:43:49;34.10;81.60
54168;DHT22;68429;50.958;3.592;2023-07-08T13:46:38;34.40;81.60
54168;DHT22;68429;50.958;3.592;2023-07-08T13:52:17;33.30;83.00
54168;DHT22;68429;50.958;3.592;2023-07-08T13:54:51;33.40;83.30
54168;DHT22;68429;50.958;3.592;2023-07-08T13:57:24;33.60;84.50
54168;DHT22;68429;50.958;3.592;2023-07-08T13:59:53;33.50;84.40
54168;DHT22;68429;50.958;3.592;2023-07-08T14:02:25;33.90;84.00
54168;DHT22;68429;50.958;3.592;2023-07-08T14:04:52;34.10;83.50
54168;DHT22;68429;50.958;3.592;2023-07-08T14:07:22;33.70;83.60
54168;DHT22;68429;50.958;3.592;2023-07-08T14:09:48;34.10;84.20
54168;DHT22;68429;50.958;3.592;2023-07-08T14:12:14;34.20;84.50
54168;DHT22;68429;50.958;3.592;2023-07-08T14:14:39;34.60;82.40
54168;DHT22;68429;50.958;3.592;2023-07-08T14:17:09;35.30;81.50
54168;DHT22;68429;50.958;3.592;2023-07-08T14:19:36;35.70;82.70
54168;DHT22;68429;50.958;3.592;2023-07-08T14:24:40;35.40;81.20
54168;DHT22;68429;50.958;3.592;2023-07-08T14:27:10;36.30;81.00
54168;DHT22;68429;50.958;3.592;2023-07-08T14:29:41;37.00;80.80
54168;DHT22;68429;50.958;3.592;2023-07-08T14:32:22;36.60;79.80
54168;DHT22;68429;50.958;3.592;2023-07-08T14:34:54;36.30;79.00
54168;DHT22;68429;50.958;3.592;2023-07-08T14:37:20;36.40;81.40
54168;DHT22;68429;50.958;3.592;2023-07-08T14:39:47;36.40;79.60
54168;DHT22;68429;50.958;3.592;2023-07-08T14:42:14;35.40;81.00
54168;DHT22;68429;50.958;3.592;2023-07-08T14:44:44;35.50;81.10
54168;DHT22;68429;50.958;3.592;2023-07-08T14:47:12;35.30;81.50
54168;DHT22;68429;50.958;3.592;2023-07-08T14:49:38;35.70;80.10
54168;DHT22;68429;50.958;3.592;2023-07-08T14:52:04;35.90;80.40
54168;DHT22;68429;50.958;3.592;2023-07-08T14:54:29;35.70;80.80
54168;DHT22;68429;50.958;3.592;2023-07-08T14:56:56;35.60;80.00
54168;DHT22;68429;50.958;3.592;2023-07-08T14:59:24;34.50;81.60
54168;DHT22;68429;50.958;3.592;2023-07-08T15:01:51;33.60;83.80
54168;DHT22;68429;50.958;3.592;2023-07-08T15:04:19;33.60;84.70
54168;DHT22;68429;50.958;3.592;2023-07-08T15:06:45;33.60;83.10
54168;DHT22;68429;50.958;3.592;2023-07-08T15:09:11;34.20;83.30
54168;DHT22;68429;50.958;3.592;2023-07-08T15:11:38;34.40;82.90
54168;DHT22;68429;50.958;3.592;2023-07-08T15:14:24;33.90;84.20
54168;DHT22;68429;50.958;3.592;2023-07-08T15:16:51;34.50;85.00
54168;DHT22;68429;50.958;3.592;2023-07-08T15:19:18;35.00;83.00
54168;DHT22;68429;50.958;3.592;2023-07-08T15:21:44;34.90;81.50
54168;DHT22;68429;50.958;3.592;2023-07-08T15:24:12;34.70;81.10
54168;DHT22;68429;50.958;3.592;2023-07-08T15:26:45;34.10;82.20
54168;DHT22;68429;50.958;3.592;2023-07-08T15:29:16;33.80;81.90
54168;DHT22;68429;50.958;3.592;2023-07-08T15:31:44;33.70;83.50
54168;DHT22;68429;50.958;3.592;2023-07-08T15:34:19;33.70;82.70
54168;DHT22;68429;50.958;3.592;2023-07-08T15:36:46;33.70;82.50
54168;DHT22;68429;50.958;3.592;2023-07-08T15:39:11;34.60;81.50
54168;DHT22;68429;50.958;3.592;2023-07-08T15:41:39;34.50;80.60
54168;DHT22;68429;50.958;3.592;2023-07-08T15:44:07;34.40;81.30
54168;DHT22;68429;50.958;3.592;2023-07-08T15:46:37;34.10;81.40
54168;DHT22;68429;50.958;3.592;2023-07-08T15:51:39;34.30;80.20
54168;DHT22;68429;50.958;3.592;2023-07-08T15:54:05;34.30;81.80
54168;DHT22;68429;50.958;3.592;2023-07-08T15:56:31;34.00;82.00
54168;DHT22;68429;50.958;3.592;2023-07-08T15:58:56;33.70;81.40
54168;DHT22;68429;50.958;3.592;2023-07-08T16:01:23;33.40;81.80
54168;DHT22;68429;50.958;3.592;2023-07-08T16:03:50;33.50;81.70
54168;DHT22;68429;50.958;3.592;2023-07-08T16:06:17;33.80;81.70
54168;DHT22;68429;50.958;3.592;2023-07-08T16:08:44;33.70;82.20
54168;DHT22;68429;50.958;3.592;2023-07-08T16:11:20;33.70;82.20
54168;DHT22;68429;50.958;3.592;2023-07-08T16:13:48;33.00;81.90
54168;DHT22;68429;50.958;3.592;2023-07-08T16:16:14;32.20;83.40
54168;DHT22;68429;50.958;3.592;2023-07-08T16:18:40;31.90;84.00
54168;DHT22;68429;50.958;3.592;2023-07-08T16:21:06;32.00;84.80
54168;DHT22;68429;50.958;3.592;2023-07-08T16:23:32;32.00;83.90
54168;DHT22;68429;50.958;3.592;2023-07-08T16:26:00;32.50;84.40
54168;DHT22;68429;50.958;3.592;2023-07-08T16:28:35;32.70;83.80